createdAt,value
2022-12-14T00:00:20.244Z,96089.03
2022-12-14T00:03:07.841Z,96088.78
2022-12-14T00:05:54.843Z,96078.63
2022-12-14T00:08:53.039Z,96075.91
2022-12-14T00:11:42.981Z,96067.53
2022-12-14T00:14:30.053Z,96057.25
2022-12-14T00:17:16.940Z,96063.03
2022-12-14T00:20:04.280Z,96066.44
2022-12-14T00:22:55.279Z,96060.41
2022-12-14T00:25:42.309Z,96051.94
2022-12-14T00:28:31.863Z,96044.13
2022-12-14T00:31:19.444Z,96043.19
2022-12-14T00:34:06.531Z,96053.69
2022-12-14T00:36:56.159Z,96050.97
2022-12-14T00:39:42.916Z,96053.69
2022-12-14T00:42:31.911Z,96047.66
2022-12-14T00:45:19.730Z,96052.63
2022-12-14T00:48:06.723Z,96055.22
2022-12-14T00:50:55.113Z,96041.78
2022-12-14T00:53:43.735Z,96056.84
2022-12-14T00:56:30.574Z,96053.69
2022-12-14T00:59:26.963Z,96056.19
2022-12-14T01:02:14.508Z,96057.00
2022-12-14T01:05:01.555Z,96047.00
2022-12-14T01:08:01.087Z,96048.63
2022-12-14T01:10:48.034Z,96051.38
2022-12-14T01:13:35.174Z,96055.72
2022-12-14T01:16:22.052Z,96065.75
2022-12-14T01:19:08.931Z,96059.28
2022-12-14T01:21:55.748Z,96067.66
2022-12-14T01:24:44.483Z,96065.06
2022-12-14T01:27:34.521Z,96052.06
2022-12-14T01:30:23.936Z,96039.28
2022-12-14T01:33:13.786Z,96049.44
2022-12-14T01:36:08.093Z,96031.63
2022-12-14T01:38:57.022Z,96035.75
2022-12-14T01:41:47.274Z,96041.78
2022-12-14T01:44:36.811Z,96048.78
2022-12-14T01:47:43.919Z,96044.75
2022-12-14T01:50:45.264Z,96044.50
2022-12-14T01:53:32.230Z,96049.69
2022-12-14T01:56:20.544Z,96049.94
2022-12-14T01:59:14.971Z,96048.78
2022-12-14T02:02:07.740Z,96027.25
2022-12-14T02:04:58.028Z,96028.91
2022-12-14T02:07:58.898Z,96012.63
2022-12-14T02:10:46.432Z,96010.94
2022-12-14T02:13:35.523Z,96010.59
2022-12-14T02:16:22.500Z,96017.81
2022-12-14T02:19:09.782Z,96004.81
2022-12-14T02:22:24.787Z,95992.47
2022-12-14T02:25:22.271Z,95989.88
2022-12-14T02:28:27.872Z,95986.59
2022-12-14T02:31:24.984Z,95978.34
2022-12-14T02:34:30.881Z,95986.59
2022-12-14T02:37:24.326Z,95977.13
2022-12-14T02:40:19.591Z,95986.03
2022-12-14T02:43:24.463Z,96008.47
2022-12-14T02:46:33.299Z,96026.44
2022-12-14T02:49:20.123Z,96014.41
2022-12-14T02:52:08.583Z,95991.91
2022-12-14T02:54:59.628Z,96010.94
2022-12-14T02:58:00.882Z,95999.88
2022-12-14T03:00:50.495Z,96010.84
2022-12-14T03:03:40.405Z,95999.59
2022-12-14T03:06:27.476Z,95990.13
2022-12-14T03:09:17.391Z,95988.38
2022-12-14T03:12:10.890Z,95994.97
2022-12-14T03:15:01.295Z,95977.59
2022-12-14T03:17:52.000Z,95974.84
2022-12-14T03:20:42.551Z,95952.53
2022-12-14T03:23:35.219Z,95955.00
2022-12-14T03:26:26.344Z,95938.00
2022-12-14T03:29:23.456Z,95932.91
2022-12-14T03:32:12.638Z,95927.59
2022-12-14T03:35:17.007Z,95926.53
2022-12-14T03:38:06.938Z,95933.50
2022-12-14T03:41:17.116Z,95935.16
2022-12-14T03:44:50.013Z,95919.91
2022-12-14T03:47:58.732Z,95913.38
2022-12-14T03:51:07.606Z,95897.22
2022-12-14T03:54:12.858Z,95892.72
2022-12-14T03:57:05.767Z,95890.25
2022-12-14T04:00:06.943Z,95890.66
2022-12-14T04:03:01.493Z,95908.59
2022-12-14T04:06:20.719Z,95908.69
2022-12-14T04:09:09.883Z,95911.03
2022-12-14T04:12:21.754Z,95912.13
2022-12-14T04:15:33.161Z,95903.66
2022-12-14T04:18:45.206Z,95902.56
2022-12-14T04:21:39.193Z,95898.44
2022-12-14T04:25:17.908Z,95906.00
2022-12-14T04:28:32.280Z,95910.94
2022-12-14T04:31:30.920Z,95906.81
2022-12-14T04:34:21.350Z,95902.00
2022-12-14T04:37:11.014Z,95898.44
2022-12-14T04:40:21.162Z,95888.72
2022-12-14T04:43:18.571Z,95879.97
2022-12-14T04:46:08.838Z,95867.66
2022-12-14T04:49:01.383Z,95858.91
2022-12-14T04:52:27.677Z,95856.31
2022-12-14T04:55:29.642Z,95863.16
2022-12-14T04:58:21.866Z,95858.91
2022-12-14T05:01:35.655Z,95858.78
2022-12-14T05:04:25.629Z,95866.44
2022-12-14T05:07:21.060Z,95869.03
2022-12-14T05:10:20.439Z,95864.38
2022-12-14T05:13:15.366Z,95864.13
2022-12-14T05:16:02.669Z,95858.78
2022-12-14T05:18:49.999Z,95853.72
2022-12-14T05:21:48.972Z,95848.63
2022-12-14T05:24:39.112Z,95868.22
2022-12-14T05:27:28.830Z,95863.00
2022-12-14T05:30:21.005Z,95838.22
2022-12-14T05:33:16.522Z,95828.53
2022-12-14T05:36:03.457Z,95824.16
2022-12-14T05:38:51.693Z,95818.94
2022-12-14T05:41:41.691Z,95812.50
2022-12-14T05:44:28.518Z,95816.34
2022-12-14T05:47:15.569Z,95824.00
2022-12-14T05:50:02.536Z,95816.34
2022-12-14T05:52:51.864Z,95806.75
2022-12-14T05:55:38.894Z,95805.41
2022-12-14T05:58:29.149Z,95788.69
2022-12-14T06:01:19.350Z,95789.25
2022-12-14T06:04:06.800Z,95786.34
2022-12-14T06:06:53.632Z,95795.81
2022-12-14T06:09:40.438Z,95786.34
2022-12-14T06:12:27.276Z,95792.41
2022-12-14T06:15:14.163Z,95784.72
2022-12-14T06:18:01.019Z,95780.34
2022-12-14T06:20:47.990Z,95757.34
2022-12-14T06:23:40.517Z,95777.63
2022-12-14T06:26:28.533Z,95769.94
2022-12-14T06:29:20.607Z,95774.88
2022-12-14T06:32:07.463Z,95770.91
2022-12-14T06:35:00.202Z,95764.72
2022-12-14T06:37:48.890Z,95768.69
2022-12-14T06:40:35.856Z,95766.94
2022-12-14T06:43:25.704Z,95769.41
2022-12-14T06:46:16.092Z,95757.22
2022-12-14T06:49:04.892Z,95760.78
2022-12-14T06:51:51.670Z,95775.41
2022-12-14T06:54:38.443Z,95759.97
2022-12-14T06:57:28.209Z,95755.44
2022-12-14T07:00:15.127Z,95762.28
2022-12-14T07:03:02.038Z,95766.81
2022-12-14T07:05:51.467Z,95760.91
2022-12-14T07:08:38.626Z,95764.91
2022-12-14T07:11:27.048Z,95755.44
2022-12-14T07:14:17.309Z,95746.00
2022-12-14T07:17:04.090Z,95749.41
2022-12-14T07:19:53.244Z,95733.13
2022-12-14T07:22:40.969Z,95738.19
2022-12-14T07:25:27.861Z,95728.75
2022-12-14T07:28:15.219Z,95724.38
2022-12-14T07:31:02.998Z,95717.22
2022-12-14T07:33:52.847Z,95711.91
2022-12-14T07:36:40.045Z,95719.72
2022-12-14T07:39:27.036Z,95703.28
2022-12-14T07:42:13.977Z,95704.22
2022-12-14T07:45:01.281Z,95710.28
2022-12-14T07:47:48.362Z,95720.38
2022-12-14T07:50:39.828Z,95731.47
2022-12-14T07:53:27.111Z,95724.50
2022-12-14T07:56:22.890Z,95728.88
2022-12-14T07:59:19.388Z,95717.38
2022-12-14T08:02:06.384Z,95720.00
2022-12-14T08:04:56.666Z,95726.97
2022-12-14T08:07:43.948Z,95713.13
2022-12-14T08:10:34.392Z,95708.63
2022-12-14T08:13:24.155Z,95718.75
2022-12-14T08:16:15.107Z,95707.53
2022-12-14T08:19:04.470Z,95698.75
2022-12-14T08:21:51.943Z,95717.63
2022-12-14T08:24:41.611Z,95704.94
2022-12-14T08:27:31.351Z,95719.97
2022-12-14T08:30:18.486Z,95707.91
2022-12-14T08:33:05.762Z,95707.22
2022-12-14T08:35:52.709Z,95709.16
2022-12-14T08:38:43.025Z,95709.00
2022-12-14T08:41:30.482Z,95706.56
2022-12-14T08:44:18.314Z,95703.41
2022-12-14T08:47:06.089Z,95716.16
2022-12-14T08:49:54.515Z,95716.28
2022-12-14T08:52:41.561Z,95712.84
2022-12-14T08:55:35.195Z,95711.06
2022-12-14T08:58:26.356Z,95704.78
2022-12-14T09:01:28.338Z,95696.97
2022-12-14T09:04:19.073Z,95704.78
2022-12-14T09:07:09.199Z,95703.00
2022-12-14T09:09:56.750Z,95680.38
2022-12-14T09:12:43.829Z,95667.38
2022-12-14T09:15:30.980Z,95657.66
2022-12-14T09:18:17.917Z,95647.94
2022-12-14T09:21:06.306Z,95641.91
2022-12-14T09:23:58.947Z,95637.41
2022-12-14T09:26:47.360Z,95639.56
2022-12-14T09:29:34.650Z,95643.81
2022-12-14T09:32:24.802Z,95638.59
2022-12-14T09:35:12.086Z,95636.16
2022-12-14T09:38:01.764Z,95622.72
2022-12-14T09:40:56.242Z,95612.31
2022-12-14T09:43:51.148Z,95607.09
2022-12-14T09:46:45.441Z,95597.38
2022-12-14T09:49:45.885Z,95587.94
2022-12-14T09:52:42.509Z,95597.09
2022-12-14T09:55:32.816Z,95592.03
2022-12-14T09:58:26.893Z,95593.69
2022-12-14T10:01:23.356Z,95600.38
2022-12-14T10:04:39.549Z,95592.56
2022-12-14T10:07:34.174Z,95583.66
2022-12-14T10:10:31.914Z,95581.06
2022-12-14T10:13:46.981Z,95577.47
2022-12-14T10:16:51.990Z,95562.53
2022-12-14T10:19:59.587Z,95546.94
2022-12-14T10:30:53.686Z,95551.84
2022-12-14T10:45:42.169Z,95537.97
2022-12-14T10:49:28.559Z,95510.88
2022-12-14T10:53:08.617Z,95514.16
2022-12-14T10:56:29.781Z,95515.78
2022-12-14T11:00:34.195Z,95534.09
2022-12-14T11:15:25.124Z,95503.00
2022-12-14T11:22:33.024Z,95489.84
2022-12-14T11:32:57.598Z,95455.88
2022-12-14T11:36:47.000Z,95462.94
2022-12-14T11:39:40.273Z,95462.66
2022-12-14T11:46:52.120Z,95446.34
2022-12-14T11:49:53.480Z,95451.94
2022-12-14T11:53:00.605Z,95441.81
2022-12-14T11:56:17.116Z,95453.41
2022-12-14T12:00:15.814Z,95435.78
2022-12-14T12:03:48.587Z,95456.69
2022-12-14T12:06:49.865Z,95460.63
2022-12-14T12:09:53.484Z,95451.03
2022-12-14T12:13:10.289Z,95456.84
2022-12-14T12:19:37.026Z,95454.38
2022-12-14T12:22:28.492Z,95443.78
2022-12-14T12:25:29.587Z,95433.59
2022-12-14T12:28:27.652Z,95448.47
2022-12-14T12:31:39.567Z,95439.25
2022-12-14T12:34:40.289Z,95430.28
2022-12-14T12:37:53.679Z,95426.09
2022-12-14T12:40:59.091Z,95411.94
2022-12-14T12:44:17.404Z,95406.22
2022-12-14T12:47:48.336Z,95410.34
2022-12-14T12:50:57.132Z,95402.69
2022-12-14T12:57:24.102Z,95400.44
2022-12-14T13:00:27.869Z,95406.84
2022-12-14T13:03:46.393Z,95412.06
2022-12-14T13:07:01.063Z,95417.59
2022-12-14T13:13:48.208Z,95405.38
2022-12-14T13:17:04.954Z,95411.47
2022-12-14T13:20:04.291Z,95388.44
2022-12-14T13:26:59.386Z,95386.03
2022-12-14T13:30:34.062Z,95388.19
2022-12-14T13:34:42.186Z,95378.88
2022-12-14T13:38:27.656Z,95376.78
2022-12-14T13:41:32.259Z,95363.88
2022-12-14T13:45:01.572Z,95356.41
2022-12-14T13:47:57.391Z,95374.34
2022-12-14T13:51:02.221Z,95390.97
2022-12-14T13:54:09.709Z,95383.31
2022-12-14T13:57:33.162Z,95395.06
2022-12-14T14:00:55.029Z,95393.09
2022-12-14T14:04:02.304Z,95388.22
2022-12-14T14:07:01.725Z,95380.41
2022-12-14T14:10:01.570Z,95393.47
2022-12-14T14:16:28.731Z,95370.31
2022-12-14T14:19:43.063Z,95381.88
2022-12-14T14:22:42.940Z,95375.69
2022-12-14T14:26:20.520Z,95390.56
2022-12-14T14:29:29.517Z,95397.41
2022-12-14T14:33:43.855Z,95393.97
2022-12-14T14:36:25.475Z,95412.06
2022-12-14T14:40:02.339Z,95412.06
2022-12-14T14:46:56.958Z,95402.13
2022-12-14T14:50:05.043Z,95404.91
2022-12-14T14:53:23.083Z,95416.34
2022-12-14T14:56:42.982Z,95421.22
2022-12-14T14:59:50.816Z,95419.91
2022-12-14T15:02:51.769Z,95420.09
2022-12-14T15:05:52.651Z,95410.44
2022-12-14T15:08:47.489Z,95422.06
2022-12-14T15:12:20.739Z,95428.59
2022-12-14T15:15:52.113Z,95435.44
2022-12-14T15:18:52.337Z,95427.63
2022-12-14T15:22:02.249Z,95404.63
2022-12-14T15:25:33.266Z,95405.75
2022-12-14T15:32:16.630Z,95401.66
2022-12-14T15:35:20.210Z,95389.59
2022-12-14T15:38:26.766Z,95396.00
2022-12-14T15:41:44.424Z,95406.44
2022-12-14T15:44:49.017Z,95412.47
2022-12-14T15:48:09.182Z,95405.25
2022-12-14T15:51:12.030Z,95420.44
2022-12-14T15:53:59.810Z,95428.25
2022-12-14T15:57:02.725Z,95434.84
2022-12-14T15:59:52.176Z,95428.94
2022-12-14T16:02:47.278Z,95443.16
2022-12-14T16:05:36.028Z,95441.19
2022-12-14T16:08:23.366Z,95447.72
2022-12-14T16:11:30.463Z,95438.56
2022-12-14T16:14:25.680Z,95453.59
2022-12-14T16:17:14.285Z,95442.97
2022-12-14T16:20:17.990Z,95439.53
2022-12-14T16:23:14.272Z,95452.75
2022-12-14T16:26:21.996Z,95444.78
2022-12-14T16:29:26.539Z,95452.25
2022-12-14T16:32:24.452Z,95459.28
2022-12-14T16:35:25.274Z,95456.03
2022-12-14T16:38:16.105Z,95456.03
2022-12-14T16:41:06.283Z,95472.03
2022-12-14T16:43:58.396Z,95479.03
2022-12-14T16:47:02.769Z,95473.31
2022-12-14T16:49:50.142Z,95499.44
2022-12-14T16:52:37.186Z,95497.47
2022-12-14T16:55:26.391Z,95494.69
2022-12-14T16:58:16.363Z,95511.84
2022-12-14T17:01:06.880Z,95504.47
2022-12-14T17:04:04.179Z,95505.94
2022-12-14T17:06:55.708Z,95493.22
2022-12-14T17:09:42.618Z,95509.53
2022-12-14T17:12:29.600Z,95517.50
2022-12-14T17:15:20.368Z,95526.53
2022-12-14T17:18:08.486Z,95520.78
2022-12-14T17:21:16.916Z,95533.03
2022-12-14T17:45:23.541Z,95551.59
2022-12-14T17:48:37.496Z,95543.44
2022-12-14T17:51:42.095Z,95537.69
2022-12-14T17:54:54.663Z,95532.31
2022-12-14T17:58:28.208Z,95540.16
2022-12-14T18:10:09.992Z,95541.16
2022-12-14T18:13:04.528Z,95547.06
2022-12-14T18:16:28.097Z,95541.16
2022-12-14T18:19:16.386Z,95546.72
2022-12-14T18:22:13.085Z,95547.56
2022-12-14T18:25:06.593Z,95552.28
2022-12-14T18:27:53.533Z,95554.06
2022-12-14T18:30:49.197Z,95559.28
2022-12-14T18:33:36.990Z,95569.41
2022-12-14T18:36:34.004Z,95564.81
2022-12-14T18:39:23.344Z,95584.47
2022-12-14T18:42:10.877Z,95572.22
2022-12-14T18:45:00.587Z,95563.25
2022-12-14T18:47:56.149Z,95579.25
2022-12-14T18:50:43.654Z,95589.19
2022-12-14T18:53:37.146Z,95605.19
2022-12-14T18:56:25.381Z,95609.59
2022-12-14T18:59:15.364Z,95601.47
2022-12-14T19:02:25.344Z,95604.38
2022-12-14T19:05:17.337Z,95601.94
2022-12-14T19:08:08.837Z,95604.69
2022-12-14T19:11:01.961Z,95613.34
2022-12-14T19:14:03.290Z,95618.41
2022-12-14T19:16:52.824Z,95619.72
2022-12-14T19:19:44.403Z,95632.94
2022-12-14T19:23:00.681Z,95633.25
2022-12-14T19:26:05.779Z,95636.06
2022-12-14T19:32:24.892Z,95634.75
2022-12-14T19:35:15.143Z,95628.53
2022-12-14T19:41:59.933Z,95648.63
2022-12-14T19:47:55.437Z,95650.53
2022-12-14T19:51:18.732Z,95662.31
2022-12-14T19:54:40.967Z,95666.22
2022-12-14T19:57:32.450Z,95660.16
2022-12-14T20:00:27.512Z,95662.09
2022-12-14T20:03:25.023Z,95673.22
2022-12-14T20:10:28.446Z,95680.59
2022-12-14T20:16:29.124Z,95672.25
2022-12-14T20:16:31.196Z,95667.03
2022-12-14T20:19:44.199Z,95674.03
2022-12-14T20:22:57.881Z,95675.53
2022-12-14T20:26:04.014Z,95692.53
2022-12-14T20:29:06.374Z,95683.00
2022-12-14T20:32:11.613Z,95686.28
2022-12-14T20:35:20.959Z,95682.84
2022-12-14T20:38:10.867Z,95693.50
2022-12-14T20:41:12.593Z,95686.28
2022-12-14T20:44:08.051Z,95698.34
2022-12-14T20:46:55.381Z,95692.19
2022-12-14T20:49:53.420Z,95692.63
2022-12-14T20:52:45.876Z,95700.97
2022-12-14T20:55:45.115Z,95723.19
2022-12-14T20:58:42.295Z,95702.09
2022-12-14T21:01:32.224Z,95711.28
2022-12-14T21:04:19.249Z,95732.69
2022-12-14T21:07:22.905Z,95724.47
2022-12-14T21:10:15.586Z,95724.16
2022-12-14T21:13:08.548Z,95716.63
2022-12-14T21:16:05.223Z,95729.56
2022-12-14T21:18:56.593Z,95723.34
2022-12-14T21:21:53.496Z,95724.84
2022-12-14T21:25:02.222Z,95728.41
2022-12-14T21:27:57.115Z,95726.25
2022-12-14T21:30:47.339Z,95732.00
2022-12-14T21:34:14.903Z,95743.56
2022-12-14T21:37:38.943Z,95745.06
2022-12-14T21:40:45.708Z,95747.59
2022-12-14T21:43:38.691Z,95774.59
2022-12-14T21:46:34.259Z,95760.06
2022-12-14T21:49:41.787Z,95754.44
2022-12-14T21:52:32.719Z,95762.50
2022-12-14T21:55:21.954Z,95776.38
2022-12-14T21:58:20.995Z,95771.16
2022-12-14T22:01:19.894Z,95759.53
2022-12-14T22:04:09.996Z,95770.34
2022-12-14T22:06:58.124Z,95781.47
2022-12-14T22:09:51.039Z,95769.13
2022-12-14T22:12:43.862Z,95770.81
2022-12-14T22:15:42.944Z,95775.84
2022-12-14T22:18:42.738Z,95777.66
2022-12-14T22:21:29.767Z,95784.50
2022-12-14T22:24:17.443Z,95789.06
2022-12-14T22:27:17.551Z,95787.94
2022-12-14T22:30:05.498Z,95786.31
2022-12-14T22:32:58.951Z,95777.34
2022-12-14T22:35:47.211Z,95769.53
2022-12-14T22:38:34.238Z,95771.84
2022-12-14T22:41:21.132Z,95777.34
2022-12-14T22:44:08.438Z,95786.00
2022-12-14T22:47:09.543Z,95787.00
2022-12-14T22:49:56.557Z,95795.47
2022-12-14T22:52:43.550Z,95801.69
2022-12-14T22:55:37.814Z,95805.91
2022-12-14T22:58:26.688Z,95806.59
2022-12-14T23:01:16.014Z,95807.59
2022-12-14T23:04:03.252Z,95805.78
2022-12-14T23:06:53.138Z,95796.22
2022-12-14T23:10:08.799Z,95802.25
2022-12-14T23:13:14.282Z,95817.63
2022-12-14T23:16:20.012Z,95815.47
2022-12-14T23:19:29.951Z,95800.34
2022-12-14T23:22:40.506Z,95804.34
2022-12-14T23:25:45.919Z,95814.66
2022-12-14T23:28:51.645Z,95817.28
2022-12-14T23:31:58.462Z,95827.41
2022-12-14T23:35:03.910Z,95820.00
2022-12-14T23:38:15.024Z,95825.75
2022-12-14T23:41:22.532Z,95827.56
2022-12-14T23:44:28.155Z,95828.81
2022-12-14T23:47:33.552Z,95836.19
2022-12-14T23:50:39.582Z,95835.00
2022-12-14T23:53:50.025Z,95838.97
2022-12-14T23:56:56.071Z,95833.75
